createdAt,value
2022-08-02T00:00:10.849Z,5.20
2022-08-02T00:02:38.324Z,4.32
2022-08-02T00:05:05.631Z,2.45
2022-08-02T00:07:36.317Z,2.42
2022-08-02T00:10:08.671Z,2.90
2022-08-02T00:12:37.385Z,5.47
2022-08-02T00:15:07.108Z,3.05
2022-08-02T00:17:33.882Z,4.63
2022-08-02T00:20:00.437Z,2.50
2022-08-02T00:22:26.907Z,3.13
2022-08-02T00:24:53.737Z,3.67
2022-08-02T00:27:20.114Z,4.35
2022-08-02T00:29:52.820Z,2.55
2022-08-02T00:32:23.097Z,5.78
2022-08-02T00:34:50.082Z,2.28
2022-08-02T00:37:17.965Z,2.25
2022-08-02T00:39:44.496Z,6.07
2022-08-02T00:42:14.064Z,5.05
2022-08-02T00:44:42.309Z,2.22
2022-08-02T00:47:08.944Z,3.00
2022-08-02T00:49:35.668Z,2.78
2022-08-02T00:52:02.329Z,2.33
2022-08-02T00:54:28.896Z,3.85
2022-08-02T00:56:55.386Z,3.50
2022-08-02T00:59:23.240Z,3.95
2022-08-02T01:01:57.676Z,4.60
2022-08-02T01:04:30.126Z,4.22
2022-08-02T01:07:02.457Z,2.45
2022-08-02T01:09:28.953Z,3.38
2022-08-02T01:11:56.535Z,3.03
2022-08-02T01:14:24.865Z,2.97
2022-08-02T01:17:24.944Z,8.88
2022-08-02T01:20:04.253Z,5.55
2022-08-02T01:23:00.669Z,8.55
2022-08-02T01:25:44.191Z,7.32
2022-08-02T01:28:32.583Z,6.05
2022-08-02T01:31:22.026Z,5.45
2022-08-02T01:33:56.914Z,6.07
2022-08-02T01:36:26.625Z,6.10
2022-08-02T01:38:55.496Z,6.97
2022-08-02T01:41:25.365Z,6.25
2022-08-02T01:43:56.645Z,5.60
2022-08-02T01:46:24.718Z,6.05
2022-08-02T01:48:56.222Z,8.00
2022-08-02T01:51:24.910Z,6.65
2022-08-02T01:54:02.292Z,6.07
2022-08-02T01:56:29.813Z,6.50
2022-08-02T01:59:18.672Z,7.35
2022-08-02T02:01:48.356Z,6.07
2022-08-02T02:04:17.881Z,8.23
2022-08-02T02:06:46.271Z,6.97
2022-08-02T02:09:15.301Z,5.45
2022-08-02T02:12:11.804Z,4.22
2022-08-02T02:14:32.550Z,4.80
2022-08-02T02:17:00.702Z,6.28
2022-08-02T02:19:29.029Z,5.80
2022-08-02T02:21:57.302Z,8.02
2022-08-02T02:24:24.432Z,7.35
2022-08-02T02:26:52.375Z,7.10
2022-08-02T02:29:22.100Z,10.13
2022-08-02T02:31:51.358Z,11.30
2022-08-02T02:34:27.944Z,7.30
2022-08-02T02:36:56.926Z,9.60
2022-08-02T02:39:23.894Z,7.72
2022-08-02T02:41:53.209Z,9.10
2022-08-02T02:44:21.579Z,11.80
2022-08-02T02:46:51.052Z,7.00
2022-08-02T02:49:20.270Z,8.25
2022-08-02T02:51:48.075Z,9.73
2022-08-02T02:54:30.157Z,7.47
2022-08-02T02:57:04.381Z,8.77
2022-08-02T02:59:31.592Z,9.65
2022-08-02T03:01:58.905Z,8.27
2022-08-02T03:04:56.012Z,6.47
2022-08-02T03:07:15.250Z,9.73
2022-08-02T03:09:43.408Z,6.65
2022-08-02T03:12:11.184Z,7.80
2022-08-02T03:14:43.313Z,7.43
2022-08-02T03:17:09.793Z,7.03
2022-08-02T03:19:36.394Z,6.50
2022-08-02T03:22:03.036Z,6.97
2022-08-02T03:24:29.609Z,5.30
2022-08-02T03:26:56.127Z,6.95
2022-08-02T03:29:22.674Z,8.20
2022-08-02T03:31:50.109Z,5.20
2022-08-02T03:34:17.095Z,6.03
2022-08-02T03:36:44.328Z,5.32
2022-08-02T03:39:13.527Z,4.80
2022-08-02T03:41:42.377Z,6.05
2022-08-02T03:44:11.184Z,4.80
2022-08-02T03:46:38.713Z,6.05
2022-08-02T03:49:06.771Z,8.27
2022-08-02T03:51:35.164Z,5.25
2022-08-02T03:54:02.548Z,4.80
2022-08-02T03:56:29.875Z,6.05
2022-08-02T03:59:07.587Z,6.65
2022-08-02T04:01:34.280Z,7.78
2022-08-02T04:04:00.726Z,5.93
2022-08-02T04:06:28.425Z,6.57
2022-08-02T04:08:55.267Z,5.75
2022-08-02T04:11:21.698Z,5.18
2022-08-02T04:13:48.239Z,5.28
2022-08-02T04:16:31.864Z,6.38
2022-08-02T04:19:01.542Z,10.43
2022-08-02T04:21:48.351Z,6.40
2022-08-02T04:24:24.327Z,4.97
2022-08-02T04:26:52.813Z,5.28
2022-08-02T04:29:19.834Z,6.10
2022-08-02T04:31:46.772Z,6.15
2022-08-02T04:34:15.509Z,6.38
2022-08-02T04:36:42.668Z,7.45
2022-08-02T04:39:09.297Z,9.80
2022-08-02T04:41:45.270Z,7.53
2022-08-02T04:44:13.276Z,7.43
2022-08-02T04:46:41.143Z,7.13
2022-08-02T04:49:08.012Z,8.45
2022-08-02T04:51:39.556Z,5.72
2022-08-02T04:54:09.888Z,5.43
2022-08-02T04:56:37.355Z,5.30
2022-08-02T04:59:03.978Z,5.90
2022-08-02T05:01:30.461Z,7.40
2022-08-02T05:03:57.004Z,5.05
2022-08-02T05:06:23.381Z,4.28
2022-08-02T05:08:52.343Z,4.35
2022-08-02T05:11:20.526Z,5.75
2022-08-02T05:13:58.105Z,5.03
2022-08-02T05:16:31.105Z,2.83
2022-08-02T05:18:59.563Z,2.97
2022-08-02T05:21:26.698Z,6.45
2022-08-02T05:23:53.298Z,3.33
2022-08-02T05:26:20.046Z,2.47
2022-08-02T05:28:46.521Z,3.40
2022-08-02T05:31:13.597Z,3.35
2022-08-02T05:33:40.501Z,2.40
2022-08-02T05:36:07.327Z,7.00
2022-08-02T05:38:37.027Z,6.63
2022-08-02T05:41:03.909Z,4.55
2022-08-02T05:43:30.457Z,4.05
2022-08-02T05:45:56.906Z,6.53
2022-08-02T05:48:27.681Z,5.25
2022-08-02T05:51:03.456Z,5.85
2022-08-02T05:53:48.916Z,5.25
2022-08-02T05:56:25.473Z,6.60
2022-08-02T05:59:11.963Z,6.03
2022-08-02T06:01:42.454Z,5.10
2022-08-02T06:06:38.185Z,4.22
2022-08-02T06:09:10.395Z,4.60
2022-08-02T06:11:39.952Z,3.92
2022-08-02T06:14:07.036Z,4.30
2022-08-02T06:16:42.010Z,4.38
2022-08-02T06:19:09.436Z,4.78
2022-08-02T06:22:40.706Z,3.53
2022-08-02T06:24:24.491Z,4.85
2022-08-02T06:26:52.894Z,3.50
2022-08-02T06:29:20.708Z,4.03
2022-08-02T06:31:51.374Z,3.78
2022-08-02T06:34:19.112Z,4.75
2022-08-02T06:36:57.746Z,4.55
2022-08-02T06:39:38.671Z,3.45
2022-08-02T06:42:13.300Z,6.25
2022-08-02T06:44:48.052Z,3.33
2022-08-02T06:47:16.393Z,5.07
2022-08-02T06:49:52.362Z,4.88
2022-08-02T06:52:25.633Z,11.13
2022-08-02T06:54:56.156Z,4.55
2022-08-02T06:57:22.576Z,4.00
2022-08-02T06:59:49.326Z,7.07
2022-08-02T07:02:16.071Z,2.85
2022-08-02T07:04:42.493Z,5.28
2022-08-02T07:07:09.071Z,3.05
2022-08-02T07:09:35.793Z,3.75
2022-08-02T07:12:02.405Z,4.68
2022-08-02T07:14:29.120Z,6.55
2022-08-02T07:16:55.742Z,4.07
2022-08-02T07:19:22.226Z,7.20
2022-08-02T07:22:02.635Z,4.35
2022-08-02T07:24:29.269Z,7.05
2022-08-02T07:27:10.829Z,5.18
2022-08-02T07:29:45.244Z,4.63
2022-08-02T07:32:25.082Z,8.27
2022-08-02T07:34:53.596Z,4.47
2022-08-02T07:37:53.607Z,4.85
2022-08-02T07:40:14.581Z,4.43
2022-08-02T07:42:44.869Z,6.72
2022-08-02T07:45:12.831Z,6.43
2022-08-02T07:47:45.188Z,5.82
2022-08-02T07:50:13.649Z,4.95
2022-08-02T07:52:41.514Z,7.50
2022-08-02T07:55:13.534Z,6.72
2022-08-02T07:57:46.107Z,5.72
2022-08-02T08:00:13.998Z,7.47
2022-08-02T08:02:41.088Z,8.05
2022-08-02T08:05:08.093Z,8.48
2022-08-02T08:07:37.806Z,7.40
2022-08-02T08:10:05.521Z,9.38
2022-08-02T08:12:31.863Z,7.40
2022-08-02T08:14:59.647Z,7.90
2022-08-02T08:17:26.869Z,9.85
2022-08-02T08:19:53.515Z,8.32
2022-08-02T08:22:20.672Z,7.32
2022-08-02T08:24:47.401Z,9.95
2022-08-02T08:27:13.888Z,6.28
2022-08-02T08:29:42.160Z,9.27
2022-08-02T08:32:16.175Z,6.63
2022-08-02T08:34:47.677Z,9.55
2022-08-02T08:37:17.957Z,11.55
2022-08-02T08:39:56.659Z,6.82
2022-08-02T08:42:28.963Z,11.43
2022-08-02T08:44:56.613Z,9.70
2022-08-02T08:47:33.810Z,10.43
2022-08-02T08:50:04.632Z,10.05
2022-08-02T08:52:36.024Z,6.45
2022-08-02T08:55:05.149Z,6.45
2022-08-02T08:57:32.977Z,6.57
2022-08-02T09:00:00.422Z,6.32
2022-08-02T09:02:28.746Z,10.05
2022-08-02T09:04:56.079Z,7.55
2022-08-02T09:07:25.518Z,7.13
2022-08-02T09:09:52.063Z,14.20
2022-08-02T09:12:20.794Z,8.48
2022-08-02T09:14:50.308Z,6.72
2022-08-02T09:17:18.165Z,7.65
2022-08-02T09:19:46.202Z,5.47
2022-08-02T09:22:14.094Z,7.55
2022-08-02T09:24:43.674Z,6.63
2022-08-02T09:27:22.112Z,7.28
2022-08-02T09:30:12.333Z,8.30
2022-08-02T09:32:46.994Z,7.10
2022-08-02T09:35:13.542Z,7.18
2022-08-02T09:37:40.104Z,5.50
2022-08-02T09:40:07.389Z,6.95
2022-08-02T09:42:34.611Z,8.15
2022-08-02T09:45:02.679Z,8.52
2022-08-02T09:47:31.087Z,6.65
2022-08-02T09:49:58.702Z,9.07
2022-08-02T09:52:43.357Z,7.15
2022-08-02T09:55:11.585Z,11.00
2022-08-02T09:57:38.219Z,6.22
2022-08-02T10:00:08.067Z,5.80
2022-08-02T10:03:08.669Z,6.63
2022-08-02T10:05:55.723Z,4.85
2022-08-02T10:08:25.343Z,7.03
2022-08-02T10:10:51.915Z,5.65
2022-08-02T10:13:20.030Z,7.60
2022-08-02T10:15:50.528Z,6.35
2022-08-02T10:18:36.980Z,4.60
2022-08-02T10:21:07.777Z,5.03
2022-08-02T10:23:36.974Z,7.97
2022-08-02T10:26:04.716Z,4.60
2022-08-02T10:28:31.512Z,5.03
2022-08-02T10:31:01.487Z,3.70
2022-08-02T10:33:35.164Z,4.95
2022-08-02T10:36:07.389Z,5.18
2022-08-02T10:38:36.182Z,3.55
2022-08-02T10:41:03.191Z,5.03
2022-08-02T10:43:33.066Z,5.43
2022-08-02T10:46:21.216Z,4.13
2022-08-02T10:52:05.518Z,3.28
2022-08-02T10:54:35.209Z,5.32
2022-08-02T10:57:04.097Z,5.18
2022-08-02T10:59:33.164Z,3.63
2022-08-02T11:02:07.140Z,3.83
2022-08-02T11:04:36.759Z,3.83
2022-08-02T11:07:07.985Z,1.70
2022-08-02T11:09:34.860Z,2.20
2022-08-02T11:12:12.973Z,3.90
2022-08-02T11:15:01.590Z,6.85
2022-08-02T11:17:29.271Z,5.95
2022-08-02T11:20:14.326Z,2.95
2022-08-02T11:22:43.118Z,2.58
2022-08-02T11:25:21.828Z,4.35
2022-08-02T11:27:49.479Z,2.13
2022-08-02T11:30:16.459Z,1.90
2022-08-02T11:32:45.324Z,3.05
2022-08-02T11:35:12.710Z,2.00
2022-08-02T11:37:41.554Z,2.53
2022-08-02T11:40:19.445Z,2.50
2022-08-02T11:42:48.469Z,2.08
2022-08-02T11:45:20.773Z,2.80
2022-08-02T11:47:50.464Z,2.65
2022-08-02T11:50:18.209Z,3.40
2022-08-02T11:52:45.465Z,2.28
2022-08-02T11:55:12.299Z,2.22
2022-08-02T11:58:04.900Z,3.40
2022-08-02T12:00:26.957Z,4.35
2022-08-02T12:02:57.289Z,3.13
2022-08-02T12:05:39.172Z,3.17
2022-08-02T12:08:11.291Z,1.77
2022-08-02T12:10:47.660Z,3.38
2022-08-02T12:13:15.306Z,2.60
2022-08-02T12:15:44.019Z,1.90
2022-08-02T12:18:16.892Z,2.08
2022-08-02T12:20:43.966Z,1.67
2022-08-02T12:23:14.247Z,2.33
2022-08-02T12:25:40.839Z,4.25
2022-08-02T12:28:18.301Z,3.33
2022-08-02T12:30:53.077Z,1.40
2022-08-02T12:33:20.896Z,1.73
2022-08-02T12:35:47.600Z,1.90
2022-08-02T12:38:14.018Z,3.05
2022-08-02T12:40:40.786Z,4.38
2022-08-02T12:43:08.916Z,2.40
2022-08-02T12:45:50.032Z,1.73
2022-08-02T12:48:56.552Z,1.88
2022-08-02T12:51:51.326Z,2.35
2022-08-02T12:54:31.349Z,1.85
2022-08-02T12:57:11.445Z,2.65
2022-08-02T12:59:40.487Z,1.95
2022-08-02T13:02:10.940Z,1.75
2022-08-02T13:04:38.154Z,1.83
2022-08-02T13:07:05.310Z,4.07
2022-08-02T13:09:41.843Z,2.80
2022-08-02T13:12:09.201Z,1.80
2022-08-02T13:14:42.024Z,2.25
2022-08-02T13:17:12.059Z,3.25
2022-08-02T13:19:38.693Z,2.20
2022-08-02T13:22:06.126Z,6.43
2022-08-02T13:24:39.691Z,3.83
2022-08-02T13:27:21.619Z,2.05
2022-08-02T13:29:51.364Z,2.50
2022-08-02T13:32:19.161Z,1.77
2022-08-02T13:34:45.810Z,2.33
2022-08-02T13:37:12.398Z,2.55
2022-08-02T13:39:38.861Z,2.65
2022-08-02T13:42:05.879Z,1.88
2022-08-02T13:44:33.222Z,4.68
2022-08-02T13:46:59.698Z,2.75
2022-08-02T13:49:49.871Z,1.92
2022-08-02T13:52:13.139Z,1.90
2022-08-02T13:54:40.867Z,1.80
2022-08-02T13:57:07.876Z,2.78
2022-08-02T13:59:57.376Z,2.10
2022-08-02T14:02:21.089Z,3.83
2022-08-02T14:04:50.445Z,3.17
2022-08-02T14:07:20.694Z,3.03
2022-08-02T14:09:47.134Z,5.20
2022-08-02T14:12:14.011Z,2.28
2022-08-02T14:14:43.242Z,2.20
2022-08-02T14:17:09.861Z,2.20
2022-08-02T14:19:38.084Z,3.30
2022-08-02T14:22:21.369Z,4.63
2022-08-02T14:24:48.074Z,2.97
2022-08-02T14:27:14.578Z,3.92
2022-08-02T14:29:41.017Z,3.20
2022-08-02T14:32:07.902Z,3.03
2022-08-02T14:34:34.304Z,3.15
2022-08-02T14:37:00.771Z,2.92
2022-08-02T14:39:43.631Z,5.55
2022-08-02T14:42:16.832Z,2.17
2022-08-02T14:44:43.506Z,3.15
2022-08-02T14:47:10.290Z,2.45
2022-08-02T14:49:41.398Z,2.65
2022-08-02T14:52:08.823Z,4.72
2022-08-02T14:54:36.017Z,2.00
2022-08-02T14:57:03.765Z,2.03
2022-08-02T14:59:30.960Z,2.50
2022-08-02T15:01:57.993Z,1.95
2022-08-02T15:04:24.896Z,2.80
2022-08-02T15:06:51.838Z,2.85
2022-08-02T15:09:18.597Z,3.17
2022-08-02T15:11:49.389Z,4.05
2022-08-02T15:14:22.385Z,2.30
2022-08-02T15:16:56.989Z,2.40
2022-08-02T15:19:23.907Z,6.55
2022-08-02T15:21:54.523Z,2.55
2022-08-02T15:24:23.610Z,3.83
2022-08-02T15:26:50.434Z,3.35
2022-08-02T15:29:17.865Z,2.40
2022-08-02T15:31:44.945Z,2.10
2022-08-02T15:34:12.680Z,2.58
2022-08-02T15:36:39.438Z,2.78
2022-08-02T15:39:05.971Z,3.88
2022-08-02T15:41:34.985Z,2.97
2022-08-02T15:44:01.907Z,2.55
2022-08-02T15:46:32.139Z,2.60
2022-08-02T15:48:59.635Z,2.25
2022-08-02T15:51:27.001Z,2.63
2022-08-02T15:53:53.762Z,2.72
2022-08-02T15:56:24.310Z,2.30
2022-08-02T15:58:58.842Z,2.28
2022-08-02T16:01:37.630Z,2.38
2022-08-02T16:04:07.374Z,2.85
2022-08-02T16:06:36.614Z,3.45
2022-08-02T16:09:03.748Z,4.80
2022-08-02T16:11:31.788Z,2.50
2022-08-02T16:14:06.379Z,2.88
2022-08-02T16:16:34.832Z,3.38
2022-08-02T16:19:37.501Z,2.88
2022-08-02T16:21:51.572Z,2.80
2022-08-02T16:24:18.371Z,2.63
2022-08-02T16:26:44.812Z,2.92
2022-08-02T16:29:11.636Z,2.90
2022-08-02T16:31:42.251Z,2.45
2022-08-02T16:34:09.335Z,2.33
2022-08-02T16:36:36.456Z,2.70
2022-08-02T16:39:03.511Z,2.30
2022-08-02T16:41:51.370Z,4.18
2022-08-02T16:44:17.413Z,2.60
2022-08-02T16:46:45.138Z,3.03
2022-08-02T16:50:05.362Z,2.35
2022-08-02T16:52:01.481Z,2.35
2022-08-02T16:54:28.924Z,2.35
2022-08-02T16:56:55.388Z,2.22
2022-08-02T16:59:25.388Z,2.42
2022-08-02T17:02:03.087Z,2.58
2022-08-02T17:04:38.550Z,5.75
2022-08-02T17:07:11.121Z,2.88
2022-08-02T17:10:04.631Z,3.15
2022-08-02T17:12:34.238Z,6.22
2022-08-02T17:15:08.849Z,2.80
2022-08-02T17:17:47.415Z,2.75
2022-08-02T17:20:15.095Z,4.22
2022-08-02T17:22:41.770Z,2.92
2022-08-02T17:25:11.303Z,3.45
2022-08-02T17:27:37.895Z,3.28
2022-08-02T17:30:04.930Z,3.33
2022-08-02T17:32:37.683Z,2.70
2022-08-02T17:35:06.711Z,2.65
2022-08-02T17:37:41.831Z,2.97
2022-08-02T17:40:09.635Z,5.55
2022-08-02T17:42:36.663Z,3.38
2022-08-02T17:45:17.113Z,2.42
2022-08-02T17:48:04.824Z,4.55
2022-08-02T17:50:33.750Z,2.80
2022-08-02T17:53:00.780Z,2.60
2022-08-02T17:55:27.528Z,3.88
2022-08-02T18:00:36.763Z,3.00
2022-08-02T18:03:05.905Z,2.97
2022-08-02T18:05:40.406Z,3.63
2022-08-02T18:08:21.240Z,3.15
2022-08-02T18:10:49.462Z,4.97
2022-08-02T18:13:15.976Z,2.95
2022-08-02T18:15:45.544Z,7.18
2022-08-02T18:18:12.964Z,3.58
2022-08-02T18:20:42.867Z,2.90
2022-08-02T18:23:10.903Z,2.92
2022-08-02T18:28:15.715Z,3.90
2022-08-02T18:30:43.326Z,4.47
2022-08-02T18:33:58.682Z,3.20
2022-08-02T18:35:56.588Z,4.97
2022-08-02T18:38:24.367Z,3.00
2022-08-02T18:40:51.460Z,4.30
2022-08-02T18:43:18.557Z,4.60
2022-08-02T18:46:05.375Z,3.78
2022-08-02T18:48:39.948Z,3.70
2022-08-02T18:51:15.866Z,4.20
2022-08-02T18:53:43.323Z,4.93
2022-08-02T18:56:20.224Z,3.40
2022-08-02T18:58:55.810Z,4.63
2022-08-02T19:01:33.900Z,3.60
2022-08-02T19:04:04.495Z,4.40
2022-08-02T19:06:32.101Z,7.47
2022-08-02T19:09:12.934Z,4.22
2022-08-02T19:11:47.571Z,5.60
2022-08-02T19:14:24.280Z,5.50
2022-08-02T19:16:55.906Z,3.65
2022-08-02T19:19:22.468Z,6.63
2022-08-02T19:22:17.646Z,4.18
2022-08-02T19:24:35.367Z,5.15
2022-08-02T19:27:09.078Z,4.57
2022-08-02T19:29:43.455Z,7.10
2022-08-02T19:32:42.588Z,8.88
2022-08-02T19:35:19.421Z,5.53
2022-08-02T19:37:59.300Z,6.72
2022-08-02T19:40:26.291Z,6.37
2022-08-02T19:44:20.505Z,4.80
2022-08-02T19:45:49.228Z,6.13
2022-08-02T19:48:16.957Z,6.30
2022-08-02T19:50:44.317Z,13.00
2022-08-02T19:53:16.005Z,13.65
2022-08-02T19:56:00.864Z,16.02
2022-08-02T19:58:32.583Z,16.85
2022-08-02T20:00:59.118Z,14.27
2022-08-02T20:03:51.491Z,12.57
2022-08-02T20:06:13.813Z,8.27
2022-08-02T20:08:45.375Z,6.93
2022-08-02T20:11:20.376Z,9.05
2022-08-02T20:13:52.331Z,6.70
2022-08-02T20:16:27.324Z,7.65
2022-08-02T20:18:55.198Z,8.15
2022-08-02T20:21:35.706Z,7.93
2022-08-02T20:24:05.437Z,5.68
2022-08-02T20:26:35.241Z,7.18
2022-08-02T20:29:03.217Z,5.47
2022-08-02T20:31:31.943Z,5.72
2022-08-02T20:33:58.631Z,5.18
2022-08-02T20:36:26.130Z,6.60
2022-08-02T20:38:55.727Z,9.18
2022-08-02T20:41:23.251Z,5.10
2022-08-02T20:43:50.387Z,4.38
2022-08-02T20:46:18.257Z,5.00
2022-08-02T20:48:44.991Z,6.47
2022-08-02T20:51:14.042Z,4.97
2022-08-02T20:53:55.097Z,4.90
2022-08-02T20:56:24.688Z,4.75
2022-08-02T20:58:52.131Z,5.03
2022-08-02T21:01:21.109Z,12.00
2022-08-02T21:03:58.714Z,4.97
2022-08-02T21:06:28.058Z,6.00
2022-08-02T21:09:13.292Z,6.13
2022-08-02T21:11:39.964Z,5.32
2022-08-02T21:14:18.648Z,6.65
2022-08-02T21:16:45.598Z,5.25
2022-08-02T21:19:12.389Z,6.47
2022-08-02T21:21:39.218Z,5.15
2022-08-02T21:24:07.574Z,5.25
2022-08-02T21:26:39.250Z,4.80
2022-08-02T21:29:06.704Z,6.07
2022-08-02T21:31:35.718Z,8.55
2022-08-02T21:34:21.525Z,6.28
2022-08-02T21:36:48.780Z,4.80
2022-08-02T21:39:17.354Z,4.95
2022-08-02T21:41:46.374Z,5.32
2022-08-02T21:44:21.986Z,6.70
2022-08-02T21:46:51.884Z,5.32
2022-08-02T21:49:21.013Z,5.82
2022-08-02T21:52:07.290Z,4.25
2022-08-02T21:54:35.073Z,6.88
2022-08-02T21:57:01.444Z,6.68
2022-08-02T21:59:30.589Z,6.00
2022-08-02T22:01:59.331Z,5.70
2022-08-02T22:04:27.942Z,4.90
2022-08-02T22:07:14.679Z,5.97
2022-08-02T22:09:45.619Z,4.97
2022-08-02T22:12:17.562Z,4.50
2022-08-02T22:14:49.591Z,4.57
2022-08-02T22:17:21.667Z,6.38
2022-08-02T22:20:08.696Z,7.07
2022-08-02T22:25:10.271Z,6.28
2022-08-02T22:28:36.282Z,5.03
2022-08-02T22:30:40.154Z,6.65
2022-08-02T22:33:15.411Z,4.50
2022-08-02T22:35:42.169Z,8.48
2022-08-02T22:38:17.252Z,4.95
2022-08-02T22:40:45.317Z,5.78
2022-08-02T22:43:12.075Z,5.95
2022-08-02T22:45:50.877Z,5.05
2022-08-02T22:48:17.671Z,5.72
2022-08-02T22:50:44.175Z,4.80
2022-08-02T22:53:10.918Z,8.18
2022-08-02T22:55:41.802Z,5.35
2022-08-02T22:58:09.495Z,5.75
2022-08-02T23:00:35.878Z,7.07
2022-08-02T23:03:02.971Z,6.65
2022-08-02T23:05:34.641Z,4.93
2022-08-02T23:08:01.147Z,6.93
2022-08-02T23:10:27.977Z,5.95
2022-08-02T23:12:54.472Z,6.10
2022-08-02T23:15:21.371Z,8.13
2022-08-02T23:17:47.732Z,6.47
2022-08-02T23:20:14.467Z,5.00
2022-08-02T23:22:41.478Z,6.30
2022-08-02T23:25:08.632Z,6.28
2022-08-02T23:27:35.583Z,8.10
2022-08-02T23:30:02.318Z,5.88
2022-08-02T23:32:30.382Z,7.65
2022-08-02T23:34:57.579Z,6.40
2022-08-02T23:37:24.623Z,5.18
2022-08-02T23:39:51.265Z,6.35
2022-08-02T23:42:18.040Z,7.97
2022-08-02T23:44:45.730Z,4.97
2022-08-02T23:47:12.309Z,5.55
2022-08-02T23:49:38.752Z,5.35
2022-08-02T23:52:05.702Z,6.75
2022-08-02T23:54:32.164Z,8.18
2022-08-02T23:56:58.662Z,6.63
2022-08-02T23:59:25.102Z,7.30
